sensor_id;sensor_type;location;lat;lon;timestamp;P1;durP1;ratioP1;P2;durP2;ratioP2
22184;SDS011;11258;52.516;13.318;2023-04-15T00:00:04;32.10;;;20.40;;
22184;SDS011;11258;52.516;13.318;2023-04-15T00:02:31;31.30;;;21.07;;
22184;SDS011;11258;52.516;13.318;2023-04-15T00:04:56;31.40;;;19.63;;
22184;SDS011;11258;52.516;13.318;2023-04-15T00:07:22;28.10;;;19.60;;
22184;SDS011;11258;52.516;13.318;2023-04-15T00:09:47;28.87;;;18.67;;
22184;SDS011;11258;52.516;13.318;2023-04-15T00:12:13;31.23;;;20.93;;
22184;SDS011;11258;52.516;13.318;2023-04-15T00:14:39;33.13;;;21.77;;
22184;SDS011;11258;52.516;13.318;2023-04-15T00:17:04;33.47;;;20.53;;
22184;SDS011;11258;52.516;13.318;2023-04-15T00:19:30;33.40;;;21.37;;
22184;SDS011;11258;52.516;13.318;2023-04-15T00:21:56;32.57;;;21.07;;
22184;SDS011;11258;52.516;13.318;2023-04-15T00:24:22;31.97;;;21.13;;
22184;SDS011;11258;52.516;13.318;2023-04-15T00:26:48;32.33;;;21.47;;
22184;SDS011;11258;52.516;13.318;2023-04-15T00:29:13;34.00;;;21.93;;
22184;SDS011;11258;52.516;13.318;2023-04-15T00:31:39;30.30;;;21.07;;
22184;SDS011;11258;52.516;13.318;2023-04-15T00:34:06;31.30;;;21.57;;
22184;SDS011;11258;52.516;13.318;2023-04-15T00:36:32;32.37;;;21.10;;
22184;SDS011;11258;52.516;13.318;2023-04-15T00:38:59;36.87;;;23.67;;
22184;SDS011;11258;52.516;13.318;2023-04-15T00:41:24;34.40;;;22.97;;
22184;SDS011;11258;52.516;13.318;2023-04-15T00:43:50;32.50;;;22.23;;
22184;SDS011;11258;52.516;13.318;2023-04-15T00:46:16;37.70;;;25.13;;
22184;SDS011;11258;52.516;13.318;2023-04-15T00:48:45;40.37;;;26.47;;
22184;SDS011;11258;52.516;13.318;2023-04-15T00:51:11;38.67;;;24.00;;
22184;SDS011;11258;52.516;13.318;2023-04-15T00:53:37;36.83;;;24.87;;
22184;SDS011;11258;52.516;13.318;2023-04-15T00:56:03;37.90;;;25.37;;
22184;SDS011;11258;52.516;13.318;2023-04-15T00:58:30;38.50;;;23.77;;
22184;SDS011;11258;52.516;13.318;2023-04-15T01:00:55;38.43;;;24.23;;
22184;SDS011;11258;52.516;13.318;2023-04-15T01:03:22;36.73;;;24.77;;
22184;SDS011;11258;52.516;13.318;2023-04-15T01:05:48;38.77;;;24.30;;
22184;SDS011;11258;52.516;13.318;2023-04-15T01:08:14;38.10;;;25.70;;
22184;SDS011;11258;52.516;13.318;2023-04-15T01:10:40;41.23;;;25.47;;
22184;SDS011;11258;52.516;13.318;2023-04-15T01:13:06;38.37;;;24.03;;
22184;SDS011;11258;52.516;13.318;2023-04-15T01:15:31;41.83;;;26.43;;
22184;SDS011;11258;52.516;13.318;2023-04-15T01:17:59;45.07;;;26.90;;
22184;SDS011;11258;52.516;13.318;2023-04-15T01:20:27;47.63;;;28.57;;
22184;SDS011;11258;52.516;13.318;2023-04-15T01:22:53;38.57;;;25.60;;
22184;SDS011;11258;52.516;13.318;2023-04-15T01:25:27;40.23;;;26.20;;
22184;SDS011;11258;52.516;13.318;2023-04-15T01:27:56;49.50;;;29.80;;
22184;SDS011;11258;52.516;13.318;2023-04-15T01:30:22;46.63;;;27.83;;
22184;SDS011;11258;52.516;13.318;2023-04-15T01:32:47;42.73;;;25.97;;
22184;SDS011;11258;52.516;13.318;2023-04-15T01:35:13;44.47;;;28.50;;
22184;SDS011;11258;52.516;13.318;2023-04-15T01:37:38;42.37;;;27.10;;
22184;SDS011;11258;52.516;13.318;2023-04-15T01:40:05;44.93;;;27.83;;
22184;SDS011;11258;52.516;13.318;2023-04-15T01:42:31;50.93;;;28.77;;
22184;SDS011;11258;52.516;13.318;2023-04-15T01:44:57;54.90;;;30.83;;
22184;SDS011;11258;52.516;13.318;2023-04-15T01:47:23;48.23;;;30.03;;
22184;SDS011;11258;52.516;13.318;2023-04-15T01:49:49;45.90;;;27.43;;
22184;SDS011;11258;52.516;13.318;2023-04-15T01:52:14;51.17;;;29.03;;
22184;SDS011;11258;52.516;13.318;2023-04-15T01:54:40;45.67;;;29.07;;
22184;SDS011;11258;52.516;13.318;2023-04-15T01:57:06;53.47;;;31.07;;
22184;SDS011;11258;52.516;13.318;2023-04-15T01:59:32;44.77;;;27.40;;
22184;SDS011;11258;52.516;13.318;2023-04-15T02:01:57;50.00;;;28.50;;
22184;SDS011;11258;52.516;13.318;2023-04-15T02:04:23;45.87;;;27.60;;
22184;SDS011;11258;52.516;13.318;2023-04-15T02:06:49;47.63;;;27.97;;
22184;SDS011;11258;52.516;13.318;2023-04-15T02:09:15;45.53;;;27.67;;
22184;SDS011;11258;52.516;13.318;2023-04-15T02:11:41;50.10;;;27.63;;
22184;SDS011;11258;52.516;13.318;2023-04-15T02:14:09;45.60;;;26.87;;
22184;SDS011;11258;52.516;13.318;2023-04-15T02:16:34;47.80;;;28.00;;
22184;SDS011;11258;52.516;13.318;2023-04-15T02:19:00;44.07;;;27.93;;
22184;SDS011;11258;52.516;13.318;2023-04-15T02:21:26;47.07;;;28.27;;
22184;SDS011;11258;52.516;13.318;2023-04-15T02:23:51;49.03;;;28.33;;
22184;SDS011;11258;52.516;13.318;2023-04-15T02:26:20;48.07;;;27.63;;
22184;SDS011;11258;52.516;13.318;2023-04-15T02:28:46;50.27;;;29.80;;
22184;SDS011;11258;52.516;13.318;2023-04-15T02:31:13;44.27;;;26.70;;
22184;SDS011;11258;52.516;13.318;2023-04-15T02:33:38;50.10;;;27.77;;
22184;SDS011;11258;52.516;13.318;2023-04-15T02:36:04;45.03;;;27.07;;
22184;SDS011;11258;52.516;13.318;2023-04-15T02:38:31;44.60;;;26.63;;
22184;SDS011;11258;52.516;13.318;2023-04-15T02:40:57;44.67;;;26.33;;
22184;SDS011;11258;52.516;13.318;2023-04-15T02:43:23;47.00;;;27.43;;
22184;SDS011;11258;52.516;13.318;2023-04-15T02:45:48;51.67;;;29.07;;
22184;SDS011;11258;52.516;13.318;2023-04-15T02:48:15;46.77;;;26.70;;
22184;SDS011;11258;52.516;13.318;2023-04-15T02:50:42;50.37;;;29.00;;
22184;SDS011;11258;52.516;13.318;2023-04-15T02:53:08;43.50;;;27.10;;
22184;SDS011;11258;52.516;13.318;2023-04-15T02:55:34;45.50;;;27.70;;
22184;SDS011;11258;52.516;13.318;2023-04-15T02:58:00;48.20;;;27.10;;
22184;SDS011;11258;52.516;13.318;2023-04-15T03:00:26;44.57;;;27.37;;
22184;SDS011;11258;52.516;13.318;2023-04-15T03:02:56;48.03;;;26.63;;
22184;SDS011;11258;52.516;13.318;2023-04-15T03:05:23;45.83;;;27.00;;
22184;SDS011;11258;52.516;13.318;2023-04-15T03:07:50;46.33;;;26.90;;
22184;SDS011;11258;52.516;13.318;2023-04-15T03:10:16;45.60;;;26.90;;
22184;SDS011;11258;52.516;13.318;2023-04-15T03:12:41;50.70;;;28.07;;
22184;SDS011;11258;52.516;13.318;2023-04-15T03:15:07;47.93;;;26.67;;
22184;SDS011;11258;52.516;13.318;2023-04-15T03:17:34;50.03;;;26.90;;
22184;SDS011;11258;52.516;13.318;2023-04-15T03:20:03;45.37;;;26.80;;
22184;SDS011;11258;52.516;13.318;2023-04-15T03:22:30;43.00;;;26.43;;
22184;SDS011;11258;52.516;13.318;2023-04-15T03:24:56;45.27;;;26.27;;
22184;SDS011;11258;52.516;13.318;2023-04-15T03:27:22;46.47;;;27.07;;
22184;SDS011;11258;52.516;13.318;2023-04-15T03:29:48;43.50;;;26.40;;
22184;SDS011;11258;52.516;13.318;2023-04-15T03:32:14;45.50;;;26.77;;
22184;SDS011;11258;52.516;13.318;2023-04-15T03:34:40;43.00;;;25.63;;
22184;SDS011;11258;52.516;13.318;2023-04-15T03:37:06;41.83;;;25.03;;
22184;SDS011;11258;52.516;13.318;2023-04-15T03:39:32;46.47;;;26.07;;
22184;SDS011;11258;52.516;13.318;2023-04-15T03:41:58;41.50;;;26.33;;
22184;SDS011;11258;52.516;13.318;2023-04-15T03:44:25;43.80;;;26.43;;
22184;SDS011;11258;52.516;13.318;2023-04-15T03:46:51;43.27;;;26.87;;
22184;SDS011;11258;52.516;13.318;2023-04-15T03:49:17;43.50;;;26.03;;
22184;SDS011;11258;52.516;13.318;2023-04-15T03:51:43;39.23;;;25.23;;
22184;SDS011;11258;52.516;13.318;2023-04-15T03:54:09;43.33;;;25.53;;
22184;SDS011;11258;52.516;13.318;2023-04-15T03:56:35;45.93;;;25.87;;
22184;SDS011;11258;52.516;13.318;2023-04-15T03:59:01;46.53;;;29.60;;
22184;SDS011;11258;52.516;13.318;2023-04-15T04:01:27;44.20;;;26.60;;
22184;SDS011;11258;52.516;13.318;2023-04-15T04:03:52;40.67;;;24.07;;
22184;SDS011;11258;52.516;13.318;2023-04-15T04:06:18;44.50;;;24.73;;
22184;SDS011;11258;52.516;13.318;2023-04-15T04:08:44;46.07;;;25.43;;
22184;SDS011;11258;52.516;13.318;2023-04-15T04:11:10;38.97;;;23.50;;
22184;SDS011;11258;52.516;13.318;2023-04-15T04:13:36;40.57;;;24.53;;
22184;SDS011;11258;52.516;13.318;2023-04-15T04:16:01;39.37;;;24.60;;
22184;SDS011;11258;52.516;13.318;2023-04-15T04:18:28;41.43;;;26.13;;
22184;SDS011;11258;52.516;13.318;2023-04-15T04:20:55;42.40;;;24.63;;
22184;SDS011;11258;52.516;13.318;2023-04-15T04:23:21;35.77;;;22.80;;
22184;SDS011;11258;52.516;13.318;2023-04-15T04:25:46;37.33;;;24.47;;
22184;SDS011;11258;52.516;13.318;2023-04-15T04:28:12;38.90;;;25.17;;
22184;SDS011;11258;52.516;13.318;2023-04-15T04:30:38;36.37;;;22.90;;
22184;SDS011;11258;52.516;13.318;2023-04-15T04:33:03;38.90;;;22.73;;
22184;SDS011;11258;52.516;13.318;2023-04-15T04:35:29;39.93;;;24.27;;
22184;SDS011;11258;52.516;13.318;2023-04-15T04:37:57;41.53;;;23.77;;
22184;SDS011;11258;52.516;13.318;2023-04-15T04:40:23;36.90;;;23.33;;
22184;SDS011;11258;52.516;13.318;2023-04-15T04:42:48;37.90;;;21.80;;
22184;SDS011;11258;52.516;13.318;2023-04-15T04:45:14;43.57;;;23.77;;
22184;SDS011;11258;52.516;13.318;2023-04-15T04:47:40;36.37;;;24.13;;
22184;SDS011;11258;52.516;13.318;2023-04-15T04:50:05;36.17;;;22.80;;
22184;SDS011;11258;52.516;13.318;2023-04-15T04:52:32;37.73;;;23.30;;
22184;SDS011;11258;52.516;13.318;2023-04-15T04:54:57;37.93;;;24.00;;
22184;SDS011;11258;52.516;13.318;2023-04-15T04:57:23;37.03;;;23.40;;
22184;SDS011;11258;52.516;13.318;2023-04-15T04:59:48;38.50;;;24.33;;
22184;SDS011;11258;52.516;13.318;2023-04-15T05:02:14;37.07;;;22.77;;
22184;SDS011;11258;52.516;13.318;2023-04-15T05:04:40;37.10;;;22.83;;
22184;SDS011;11258;52.516;13.318;2023-04-15T05:07:05;39.27;;;23.90;;
22184;SDS011;11258;52.516;13.318;2023-04-15T05:09:32;40.80;;;23.50;;
22184;SDS011;11258;52.516;13.318;2023-04-15T05:12:00;38.63;;;21.93;;
22184;SDS011;11258;52.516;13.318;2023-04-15T05:14:25;33.00;;;22.40;;
22184;SDS011;11258;52.516;13.318;2023-04-15T05:16:51;35.80;;;23.03;;
22184;SDS011;11258;52.516;13.318;2023-04-15T05:19:16;36.40;;;23.27;;
22184;SDS011;11258;52.516;13.318;2023-04-15T05:21:42;35.27;;;21.13;;
22184;SDS011;11258;52.516;13.318;2023-04-15T05:24:08;29.20;;;19.90;;
22184;SDS011;11258;52.516;13.318;2023-04-15T05:26:33;34.40;;;21.93;;
22184;SDS011;11258;52.516;13.318;2023-04-15T05:28:59;34.67;;;20.83;;
22184;SDS011;11258;52.516;13.318;2023-04-15T05:31:24;29.57;;;20.27;;
22184;SDS011;11258;52.516;13.318;2023-04-15T05:33:50;30.83;;;19.73;;
22184;SDS011;11258;52.516;13.318;2023-04-15T05:36:16;31.00;;;20.23;;
22184;SDS011;11258;52.516;13.318;2023-04-15T05:38:41;32.13;;;19.63;;
22184;SDS011;11258;52.516;13.318;2023-04-15T05:41:07;28.17;;;18.30;;
22184;SDS011;11258;52.516;13.318;2023-04-15T05:43:33;26.83;;;18.50;;
22184;SDS011;11258;52.516;13.318;2023-04-15T05:45:58;28.33;;;17.63;;
22184;SDS011;11258;52.516;13.318;2023-04-15T05:48:24;28.70;;;19.43;;
22184;SDS011;11258;52.516;13.318;2023-04-15T05:50:50;26.47;;;17.90;;
22184;SDS011;11258;52.516;13.318;2023-04-15T05:53:15;25.93;;;18.50;;
22184;SDS011;11258;52.516;13.318;2023-04-15T05:55:41;28.47;;;18.03;;
22184;SDS011;11258;52.516;13.318;2023-04-15T05:58:07;27.87;;;17.40;;
22184;SDS011;11258;52.516;13.318;2023-04-15T06:00:32;27.80;;;17.53;;
22184;SDS011;11258;52.516;13.318;2023-04-15T06:02:58;26.80;;;17.97;;
22184;SDS011;11258;52.516;13.318;2023-04-15T06:05:24;30.47;;;17.37;;
22184;SDS011;11258;52.516;13.318;2023-04-15T06:07:50;25.63;;;17.03;;
22184;SDS011;11258;52.516;13.318;2023-04-15T06:10:16;25.10;;;17.77;;
22184;SDS011;11258;52.516;13.318;2023-04-15T06:12:42;26.63;;;17.03;;
22184;SDS011;11258;52.516;13.318;2023-04-15T06:15:08;24.63;;;16.00;;
22184;SDS011;11258;52.516;13.318;2023-04-15T06:17:34;26.00;;;16.93;;
22184;SDS011;11258;52.516;13.318;2023-04-15T06:20:00;24.63;;;17.20;;
22184;SDS011;11258;52.516;13.318;2023-04-15T06:22:27;25.47;;;15.20;;
22184;SDS011;11258;52.516;13.318;2023-04-15T06:24:52;25.50;;;15.67;;
22184;SDS011;11258;52.516;13.318;2023-04-15T06:27:18;22.63;;;15.87;;
22184;SDS011;11258;52.516;13.318;2023-04-15T06:29:44;20.23;;;15.67;;
22184;SDS011;11258;52.516;13.318;2023-04-15T06:32:10;26.67;;;15.90;;
22184;SDS011;11258;52.516;13.318;2023-04-15T06:34:37;23.20;;;17.00;;
22184;SDS011;11258;52.516;13.318;2023-04-15T06:37:02;21.07;;;15.07;;
22184;SDS011;11258;52.516;13.318;2023-04-15T06:39:28;20.93;;;14.40;;
22184;SDS011;11258;52.516;13.318;2023-04-15T06:41:53;23.30;;;14.90;;
22184;SDS011;11258;52.516;13.318;2023-04-15T06:44:20;19.20;;;13.17;;
22184;SDS011;11258;52.516;13.318;2023-04-15T06:46:46;18.87;;;14.00;;
22184;SDS011;11258;52.516;13.318;2023-04-15T06:49:11;20.47;;;14.27;;
22184;SDS011;11258;52.516;13.318;2023-04-15T06:51:37;17.63;;;13.43;;
22184;SDS011;11258;52.516;13.318;2023-04-15T06:54:03;21.20;;;13.77;;
22184;SDS011;11258;52.516;13.318;2023-04-15T06:56:33;17.37;;;13.00;;
22184;SDS011;11258;52.516;13.318;2023-04-15T06:58:59;19.30;;;12.30;;
22184;SDS011;11258;52.516;13.318;2023-04-15T07:01:25;16.27;;;12.00;;
22184;SDS011;11258;52.516;13.318;2023-04-15T07:03:51;17.43;;;12.10;;
22184;SDS011;11258;52.516;13.318;2023-04-15T07:06:17;18.10;;;11.67;;
22184;SDS011;11258;52.516;13.318;2023-04-15T07:08:42;14.80;;;10.73;;
22184;SDS011;11258;52.516;13.318;2023-04-15T07:11:08;15.33;;;10.77;;
22184;SDS011;11258;52.516;13.318;2023-04-15T07:13:34;13.33;;;9.80;;
22184;SDS011;11258;52.516;13.318;2023-04-15T07:16:00;16.83;;;11.13;;
22184;SDS011;11258;52.516;13.318;2023-04-15T07:18:26;16.63;;;10.47;;
22184;SDS011;11258;52.516;13.318;2023-04-15T07:20:52;13.87;;;9.87;;
22184;SDS011;11258;52.516;13.318;2023-04-15T07:23:17;14.47;;;10.27;;
22184;SDS011;11258;52.516;13.318;2023-04-15T07:25:43;17.30;;;10.73;;
22184;SDS011;11258;52.516;13.318;2023-04-15T07:28:08;14.53;;;10.17;;
22184;SDS011;11258;52.516;13.318;2023-04-15T07:30:34;17.57;;;11.03;;
22184;SDS011;11258;52.516;13.318;2023-04-15T07:33:00;16.90;;;10.20;;
22184;SDS011;11258;52.516;13.318;2023-04-15T07:35:26;14.47;;;9.97;;
22184;SDS011;11258;52.516;13.318;2023-04-15T07:37:53;14.03;;;11.07;;
22184;SDS011;11258;52.516;13.318;2023-04-15T07:40:19;12.97;;;10.57;;
22184;SDS011;11258;52.516;13.318;2023-04-15T07:42:44;15.73;;;11.07;;
22184;SDS011;11258;52.516;13.318;2023-04-15T07:45:12;14.90;;;11.70;;
22184;SDS011;11258;52.516;13.318;2023-04-15T07:47:37;14.43;;;11.60;;
22184;SDS011;11258;52.516;13.318;2023-04-15T07:50:04;16.70;;;11.53;;
22184;SDS011;11258;52.516;13.318;2023-04-15T07:52:31;16.90;;;11.53;;
22184;SDS011;11258;52.516;13.318;2023-04-15T07:55:03;15.27;;;11.27;;
22184;SDS011;11258;52.516;13.318;2023-04-15T07:57:35;17.87;;;11.97;;
22184;SDS011;11258;52.516;13.318;2023-04-15T08:00:02;17.87;;;12.00;;
22184;SDS011;11258;52.516;13.318;2023-04-15T08:02:31;14.83;;;11.07;;
22184;SDS011;11258;52.516;13.318;2023-04-15T08:04:57;17.87;;;12.30;;
22184;SDS011;11258;52.516;13.318;2023-04-15T08:07:23;15.20;;;11.67;;
22184;SDS011;11258;52.516;13.318;2023-04-15T08:09:49;16.23;;;11.47;;
22184;SDS011;11258;52.516;13.318;2023-04-15T08:12:15;16.37;;;13.07;;
22184;SDS011;11258;52.516;13.318;2023-04-15T08:14:41;15.10;;;12.27;;
22184;SDS011;11258;52.516;13.318;2023-04-15T08:17:06;15.63;;;12.97;;
22184;SDS011;11258;52.516;13.318;2023-04-15T08:19:32;16.13;;;11.87;;
22184;SDS011;11258;52.516;13.318;2023-04-15T08:21:58;18.47;;;12.40;;
22184;SDS011;11258;52.516;13.318;2023-04-15T08:24:24;18.80;;;13.33;;
22184;SDS011;11258;52.516;13.318;2023-04-15T08:26:50;15.60;;;11.77;;
22184;SDS011;11258;52.516;13.318;2023-04-15T08:29:16;16.77;;;12.93;;
22184;SDS011;11258;52.516;13.318;2023-04-15T08:31:42;18.43;;;12.57;;
22184;SDS011;11258;52.516;13.318;2023-04-15T08:34:08;17.63;;;13.00;;
22184;SDS011;11258;52.516;13.318;2023-04-15T08:36:36;15.37;;;12.53;;
22184;SDS011;11258;52.516;13.318;2023-04-15T08:39:02;17.47;;;13.03;;
22184;SDS011;11258;52.516;13.318;2023-04-15T08:41:29;17.07;;;13.00;;
22184;SDS011;11258;52.516;13.318;2023-04-15T08:44:04;16.13;;;13.13;;
22184;SDS011;11258;52.516;13.318;2023-04-15T08:46:30;19.67;;;13.10;;
22184;SDS011;11258;52.516;13.318;2023-04-15T08:48:58;14.33;;;12.23;;
22184;SDS011;11258;52.516;13.318;2023-04-15T08:51:27;18.23;;;12.33;;
22184;SDS011;11258;52.516;13.318;2023-04-15T08:53:53;18.40;;;13.33;;
22184;SDS011;11258;52.516;13.318;2023-04-15T08:56:19;16.03;;;13.30;;
22184;SDS011;11258;52.516;13.318;2023-04-15T08:58:49;16.10;;;13.20;;
22184;SDS011;11258;52.516;13.318;2023-04-15T09:01:15;15.67;;;13.33;;
22184;SDS011;11258;52.516;13.318;2023-04-15T09:03:41;17.53;;;12.83;;
22184;SDS011;11258;52.516;13.318;2023-04-15T09:06:07;15.37;;;13.03;;
22184;SDS011;11258;52.516;13.318;2023-04-15T09:08:33;17.87;;;12.77;;
22184;SDS011;11258;52.516;13.318;2023-04-15T09:11:00;23.57;;;14.17;;
22184;SDS011;11258;52.516;13.318;2023-04-15T09:13:27;18.60;;;13.17;;
22184;SDS011;11258;52.516;13.318;2023-04-15T09:15:53;16.93;;;13.83;;
22184;SDS011;11258;52.516;13.318;2023-04-15T09:18:25;17.40;;;12.70;;
22184;SDS011;11258;52.516;13.318;2023-04-15T09:20:53;16.67;;;13.13;;
22184;SDS011;11258;52.516;13.318;2023-04-15T09:23:19;16.67;;;13.03;;
22184;SDS011;11258;52.516;13.318;2023-04-15T09:25:45;18.97;;;13.93;;
22184;SDS011;11258;52.516;13.318;2023-04-15T09:28:11;16.33;;;13.20;;
22184;SDS011;11258;52.516;13.318;2023-04-15T09:30:36;18.20;;;13.03;;
22184;SDS011;11258;52.516;13.318;2023-04-15T09:33:02;15.23;;;11.90;;
22184;SDS011;11258;52.516;13.318;2023-04-15T09:35:32;19.10;;;13.43;;
22184;SDS011;11258;52.516;13.318;2023-04-15T09:38:05;16.63;;;12.27;;
22184;SDS011;11258;52.516;13.318;2023-04-15T09:40:37;18.67;;;13.27;;
22184;SDS011;11258;52.516;13.318;2023-04-15T09:43:05;18.53;;;13.83;;
22184;SDS011;11258;52.516;13.318;2023-04-15T09:45:32;16.60;;;12.67;;
22184;SDS011;11258;52.516;13.318;2023-04-15T09:48:13;19.33;;;13.90;;
22184;SDS011;11258;52.516;13.318;2023-04-15T09:50:47;17.33;;;12.10;;
22184;SDS011;11258;52.516;13.318;2023-04-15T09:53:15;15.83;;;12.60;;
22184;SDS011;11258;52.516;13.318;2023-04-15T09:55:45;18.07;;;13.10;;
22184;SDS011;11258;52.516;13.318;2023-04-15T09:58:17;14.23;;;11.93;;
22184;SDS011;11258;52.516;13.318;2023-04-15T10:00:53;15.40;;;12.60;;
22184;SDS011;11258;52.516;13.318;2023-04-15T10:05:54;16.83;;;13.43;;
22184;SDS011;11258;52.516;13.318;2023-04-15T10:08:22;16.13;;;12.90;;
22184;SDS011;11258;52.516;13.318;2023-04-15T10:10:51;17.43;;;12.73;;
22184;SDS011;11258;52.516;13.318;2023-04-15T10:13:18;15.37;;;12.20;;
22184;SDS011;11258;52.516;13.318;2023-04-15T10:15:50;14.90;;;12.17;;
22184;SDS011;11258;52.516;13.318;2023-04-15T10:18:29;16.33;;;12.67;;
22184;SDS011;11258;52.516;13.318;2023-04-15T10:20:59;17.53;;;11.67;;
22184;SDS011;11258;52.516;13.318;2023-04-15T10:23:25;13.80;;;12.13;;
22184;SDS011;11258;52.516;13.318;2023-04-15T10:25:52;17.40;;;12.37;;
22184;SDS011;11258;52.516;13.318;2023-04-15T10:28:19;14.70;;;12.67;;
22184;SDS011;11258;52.516;13.318;2023-04-15T10:30:46;17.77;;;13.43;;
22184;SDS011;11258;52.516;13.318;2023-04-15T10:33:13;15.77;;;13.17;;
22184;SDS011;11258;52.516;13.318;2023-04-15T10:35:42;14.87;;;12.37;;
22184;SDS011;11258;52.516;13.318;2023-04-15T10:46:40;19.10;;;12.80;;
22184;SDS011;11258;52.516;13.318;2023-04-15T10:51:36;15.13;;;11.47;;
22184;SDS011;11258;52.516;13.318;2023-04-15T10:54:13;16.37;;;11.87;;
22184;SDS011;11258;52.516;13.318;2023-04-15T10:56:47;15.53;;;10.50;;
22184;SDS011;11258;52.516;13.318;2023-04-15T10:59:15;15.73;;;11.43;;
22184;SDS011;11258;52.516;13.318;2023-04-15T11:02:00;14.73;;;12.23;;
22184;SDS011;11258;52.516;13.318;2023-04-15T11:12:56;14.73;;;12.60;;
22184;SDS011;11258;52.516;13.318;2023-04-15T11:18:19;17.90;;;11.87;;
22184;SDS011;11258;52.516;13.318;2023-04-15T11:20:49;14.83;;;11.93;;
22184;SDS011;11258;52.516;13.318;2023-04-15T11:26:05;15.77;;;12.60;;
22184;SDS011;11258;52.516;13.318;2023-04-15T11:28:33;14.90;;;12.30;;
22184;SDS011;11258;52.516;13.318;2023-04-15T11:31:10;17.43;;;13.27;;
22184;SDS011;11258;52.516;13.318;2023-04-15T11:33:44;14.03;;;12.20;;
22184;SDS011;11258;52.516;13.318;2023-04-15T11:36:11;16.33;;;12.07;;
22184;SDS011;11258;52.516;13.318;2023-04-15T11:38:41;15.00;;;12.43;;
22184;SDS011;11258;52.516;13.318;2023-04-15T11:41:08;13.77;;;11.37;;
22184;SDS011;11258;52.516;13.318;2023-04-15T11:43:33;14.47;;;11.67;;
22184;SDS011;11258;52.516;13.318;2023-04-15T11:46:00;14.80;;;11.10;;
22184;SDS011;11258;52.516;13.318;2023-04-15T11:48:27;14.47;;;11.60;;
22184;SDS011;11258;52.516;13.318;2023-04-15T11:50:55;15.33;;;12.40;;
22184;SDS011;11258;52.516;13.318;2023-04-15T11:53:22;15.93;;;11.97;;
22184;SDS011;11258;52.516;13.318;2023-04-15T11:55:50;16.20;;;11.40;;
22184;SDS011;11258;52.516;13.318;2023-04-15T11:58:23;15.07;;;12.23;;
22184;SDS011;11258;52.516;13.318;2023-04-15T12:00:54;18.13;;;11.17;;
22184;SDS011;11258;52.516;13.318;2023-04-15T12:03:23;16.07;;;12.00;;
22184;SDS011;11258;52.516;13.318;2023-04-15T12:06:02;15.13;;;12.13;;
22184;SDS011;11258;52.516;13.318;2023-04-15T12:11:30;16.20;;;11.60;;
22184;SDS011;11258;52.516;13.318;2023-04-15T12:16:37;13.37;;;11.23;;
22184;SDS011;11258;52.516;13.318;2023-04-15T12:19:06;14.77;;;12.03;;
22184;SDS011;11258;52.516;13.318;2023-04-15T12:21:37;16.63;;;12.27;;
22184;SDS011;11258;52.516;13.318;2023-04-15T12:24:06;15.27;;;12.10;;
22184;SDS011;11258;52.516;13.318;2023-04-15T12:29:02;17.87;;;12.53;;
22184;SDS011;11258;52.516;13.318;2023-04-15T12:31:29;15.10;;;11.67;;
22184;SDS011;11258;52.516;13.318;2023-04-15T12:33:55;16.80;;;12.00;;
22184;SDS011;11258;52.516;13.318;2023-04-15T12:36:22;15.37;;;11.93;;
22184;SDS011;11258;52.516;13.318;2023-04-15T12:38:48;14.07;;;12.40;;
22184;SDS011;11258;52.516;13.318;2023-04-15T12:41:14;14.57;;;12.07;;
22184;SDS011;11258;52.516;13.318;2023-04-15T12:43:40;13.93;;;10.87;;
22184;SDS011;11258;52.516;13.318;2023-04-15T12:46:06;15.37;;;10.70;;
22184;SDS011;11258;52.516;13.318;2023-04-15T12:48:32;15.17;;;11.23;;
22184;SDS011;11258;52.516;13.318;2023-04-15T12:50:58;14.47;;;11.43;;
22184;SDS011;11258;52.516;13.318;2023-04-15T12:53:24;15.00;;;12.07;;
22184;SDS011;11258;52.516;13.318;2023-04-15T12:55:50;25.70;;;18.63;;
22184;SDS011;11258;52.516;13.318;2023-04-15T12:58:16;43.60;;;31.00;;
22184;SDS011;11258;52.516;13.318;2023-04-15T13:00:42;67.30;;;51.50;;
22184;SDS011;11258;52.516;13.318;2023-04-15T13:03:08;105.70;;;77.90;;
22184;SDS011;11258;52.516;13.318;2023-04-15T13:05:34;74.50;;;55.40;;
22184;SDS011;11258;52.516;13.318;2023-04-15T13:08:01;54.03;;;44.13;;
22184;SDS011;11258;52.516;13.318;2023-04-15T13:10:28;68.03;;;48.20;;
22184;SDS011;11258;52.516;13.318;2023-04-15T13:12:53;73.00;;;52.47;;
22184;SDS011;11258;52.516;13.318;2023-04-15T13:15:20;108.93;;;66.57;;
22184;SDS011;11258;52.516;13.318;2023-04-15T13:17:46;84.40;;;50.80;;
22184;SDS011;11258;52.516;13.318;2023-04-15T13:20:12;104.90;;;50.47;;
22184;SDS011;11258;52.516;13.318;2023-04-15T13:22:38;66.67;;;33.30;;
22184;SDS011;11258;52.516;13.318;2023-04-15T13:25:04;52.70;;;26.00;;
22184;SDS011;11258;52.516;13.318;2023-04-15T13:27:31;56.27;;;27.87;;
22184;SDS011;11258;52.516;13.318;2023-04-15T13:29:57;30.87;;;17.33;;
22184;SDS011;11258;52.516;13.318;2023-04-15T13:32:23;38.43;;;20.10;;
22184;SDS011;11258;52.516;13.318;2023-04-15T13:34:49;19.87;;;11.73;;
22184;SDS011;11258;52.516;13.318;2023-04-15T13:37:15;28.23;;;17.03;;
22184;SDS011;11258;52.516;13.318;2023-04-15T13:39:41;36.63;;;20.10;;
22184;SDS011;11258;52.516;13.318;2023-04-15T13:42:06;40.70;;;20.20;;
22184;SDS011;11258;52.516;13.318;2023-04-15T13:44:32;37.80;;;19.40;;
22184;SDS011;11258;52.516;13.318;2023-04-15T13:46:57;37.37;;;18.83;;
22184;SDS011;11258;52.516;13.318;2023-04-15T13:49:23;35.57;;;17.13;;
22184;SDS011;11258;52.516;13.318;2023-04-15T13:51:49;30.00;;;15.03;;
22184;SDS011;11258;52.516;13.318;2023-04-15T13:54:15;29.77;;;15.50;;
22184;SDS011;11258;52.516;13.318;2023-04-15T13:56:41;27.37;;;15.93;;
22184;SDS011;11258;52.516;13.318;2023-04-15T13:59:07;25.50;;;12.17;;
22184;SDS011;11258;52.516;13.318;2023-04-15T14:01:33;18.33;;;12.03;;
22184;SDS011;11258;52.516;13.318;2023-04-15T14:03:59;16.40;;;11.03;;
22184;SDS011;11258;52.516;13.318;2023-04-15T14:06:25;16.37;;;11.17;;
22184;SDS011;11258;52.516;13.318;2023-04-15T14:08:51;14.23;;;10.37;;
22184;SDS011;11258;52.516;13.318;2023-04-15T14:11:17;15.00;;;9.97;;
22184;SDS011;11258;52.516;13.318;2023-04-15T14:13:42;14.90;;;11.20;;
22184;SDS011;11258;52.516;13.318;2023-04-15T14:16:08;16.77;;;12.23;;
22184;SDS011;11258;52.516;13.318;2023-04-15T14:18:34;18.97;;;12.73;;
22184;SDS011;11258;52.516;13.318;2023-04-15T14:21:01;18.17;;;14.10;;
22184;SDS011;11258;52.516;13.318;2023-04-15T14:23:27;18.07;;;13.37;;
22184;SDS011;11258;52.516;13.318;2023-04-15T14:25:52;18.20;;;12.33;;
22184;SDS011;11258;52.516;13.318;2023-04-15T14:28:18;17.97;;;13.13;;
22184;SDS011;11258;52.516;13.318;2023-04-15T14:30:44;18.80;;;13.77;;
22184;SDS011;11258;52.516;13.318;2023-04-15T14:33:09;15.67;;;11.70;;
22184;SDS011;11258;52.516;13.318;2023-04-15T14:35:35;15.23;;;11.10;;
22184;SDS011;11258;52.516;13.318;2023-04-15T14:38:00;20.17;;;14.77;;
22184;SDS011;11258;52.516;13.318;2023-04-15T14:40:26;14.93;;;11.97;;